Time;durP1;ratioP1;P1;durP2;ratioP2;P2;SDS_P1;SDS_P2;PMS_P1;PMS_P2;Temp;Humidity;BMP_temperature;BMP_pressure;BME280_temperature;BME280_humidity;BME280_pressure;Samples;Min_cycle;Max_cycle;Signal;HPM_P1;HPM_P2
2023/07/27 00:02:12;;;;;;;4.28;1.40;;;15.10;99.90;;;14.16;100.00;97530.13;4952367;28;20054;-76
2023/07/27 00:04:40;;;;;;;5.35;1.92;;;15.10;99.90;;;14.23;100.00;97534.91;4944000;28;20046;-76
2023/07/27 00:07:07;;;;;;;3.22;1.65;;;15.10;99.90;;;14.14;100.00;97530.22;4946518;28;20047;-76
2023/07/27 00:09:35;;;;;;;4.70;1.85;;;15.00;99.90;;;14.20;100.00;97531.63;4962789;28;20044;-75
2023/07/27 00:12:02;;;;;;;7.80;1.52;;;15.00;99.90;;;14.11;100.00;97540.81;4944626;28;20055;-76
2023/07/27 00:14:29;;;;;;;3.63;1.50;;;15.00;99.90;;;14.18;100.00;97534.31;4947160;28;20138;-76
2023/07/27 00:16:56;;;;;;;6.68;1.92;;;15.00;99.90;;;14.16;100.00;97537.94;4947089;28;20106;-76
2023/07/27 00:19:23;;;;;;;4.50;1.77;;;15.00;99.90;;;14.14;100.00;97539.81;4949515;28;20070;-76
2023/07/27 00:21:51;;;;;;;5.38;1.60;;;15.00;99.90;;;14.15;100.00;97539.72;4948963;28;20062;-76
2023/07/27 00:24:18;;;;;;;4.15;1.67;;;15.00;99.90;;;14.14;100.00;97535.44;4941242;28;20154;-76
2023/07/27 00:26:45;;;;;;;5.88;1.63;;;15.00;99.90;;;14.17;100.00;97535.25;4946004;28;20094;-76
2023/07/27 00:29:12;;;;;;;5.35;1.60;;;15.00;99.90;;;14.18;100.00;97536.09;4945193;28;20162;-76
2023/07/27 00:31:39;;;;;;;3.80;1.70;;;15.10;99.90;;;14.21;100.00;97535.94;4948548;28;20612;-76
2023/07/27 00:34:06;;;;;;;3.17;1.52;;;15.10;99.90;;;14.24;100.00;97530.53;4940505;28;20094;-76
2023/07/27 00:36:33;;;;;;;3.70;1.40;;;15.10;99.90;;;14.32;100.00;97522.25;4948309;28;20130;-76
2023/07/27 00:39:01;;;;;;;3.97;1.67;;;15.20;99.90;;;14.30;100.00;97516.25;4943188;28;20059;-76
2023/07/27 00:41:28;;;;;;;5.13;1.80;;;15.20;99.90;;;14.29;100.00;97519.81;4953958;28;20524;-76
2023/07/27 00:43:55;;;;;;;3.88;1.55;;;15.20;99.90;;;14.32;100.00;97507.44;4948849;28;20579;-76
2023/07/27 00:46:23;;;;;;;4.72;1.45;;;15.20;99.90;;;14.34;100.00;97512.56;4949699;28;20135;-76
2023/07/27 00:48:50;;;;;;;3.13;1.55;;;15.20;99.90;;;14.35;100.00;97504.63;4953475;28;20060;-76
2023/07/27 00:51:17;;;;;;;3.35;1.55;;;15.20;99.90;;;14.35;100.00;97509.84;4951399;28;20075;-76
2023/07/27 00:53:44;;;;;;;7.97;1.80;;;15.20;99.90;;;14.30;100.00;97506.69;4949742;28;20240;-76
2023/07/27 00:56:11;;;;;;;7.43;1.75;;;15.20;99.90;;;14.32;100.00;97502.22;4947552;28;20512;-76
2023/07/27 00:58:41;;;;;;;4.35;1.13;;;15.20;99.90;;;14.40;100.00;97492.13;4944426;28;20051;-76
2023/07/27 01:01:10;;;;;;;4.35;1.40;;;15.20;99.90;;;14.42;100.00;97489.44;4947262;28;20054;-76
2023/07/27 01:03:37;;;;;;;7.68;2.08;;;15.30;99.90;;;14.40;100.00;97484.31;4933088;29;20051;-76
2023/07/27 01:06:05;;;;;;;2.97;1.27;;;15.30;99.90;;;14.44;100.00;97479.75;4945151;28;20050;-76
2023/07/27 01:08:32;;;;;;;3.90;1.50;;;15.30;99.90;;;14.36;100.00;97479.34;4948900;28;20083;-76
2023/07/27 01:11:42;;;;;;;6.25;1.80;;;15.20;99.90;;;14.35;100.00;97470.69;4933622;28;20523;-76
2023/07/27 01:14:21;;;;;;;6.13;1.50;;;15.20;99.90;;;14.37;100.00;97468.00;4961654;28;20051;-76
2023/07/27 01:17:23;;;;;;;5.72;1.80;;;15.20;99.90;;;14.33;100.00;97461.28;4946672;28;20047;-76
2023/07/27 01:20:06;;;;;;;3.88;1.48;;;15.20;99.90;;;14.34;100.00;97458.56;4945733;28;20129;-76
2023/07/27 01:22:32;;;;;;;5.60;1.60;;;15.20;99.90;;;14.35;100.00;97457.63;4948821;28;20461;-76
2023/07/27 01:25:07;;;;;;;5.57;1.60;;;15.20;99.90;;;14.43;100.00;97454.56;4965815;28;20838;-76
2023/07/27 01:27:48;;;;;;;6.35;2.00;;;15.20;99.90;;;14.36;100.00;97446.25;4970012;28;20055;-76
2023/07/27 01:30:39;;;;;;;3.78;1.45;;;15.20;99.90;;;14.44;100.00;97448.41;4943953;28;20401;-76
2023/07/27 01:33:12;;;;;;;4.05;1.67;;;15.20;99.90;;;14.47;100.00;97450.84;4949303;28;20078;-75
2023/07/27 01:36:08;;;;;;;4.88;1.90;;;15.30;99.90;;;14.51;100.00;97435.81;4935369;29;20055;-76
2023/07/27 01:38:39;;;;;;;4.75;1.77;;;15.30;99.90;;;14.51;100.00;97444.50;4946260;28;20126;-76
2023/07/27 01:41:09;;;;;;;5.33;1.53;;;15.30;99.90;;;14.52;100.00;97440.09;4951730;28;20051;-76
2023/07/27 01:43:39;;;;;;;5.10;1.73;;;15.30;99.90;;;14.53;100.00;97426.09;4947198;28;20957;-76
2023/07/27 01:46:08;;;;;;;3.42;1.40;;;15.30;99.90;;;14.52;100.00;97420.03;4946753;28;20147;-75
2023/07/27 01:48:39;;;;;;;5.13;1.35;;;15.30;99.90;;;14.57;100.00;97425.88;4949949;28;20051;-76
2023/07/27 01:53:48;;;;;;;4.32;1.70;;;15.40;99.90;;;14.52;100.00;97419.22;5052656;28;20497;-75
2023/07/27 01:56:16;;;;;;;4.93;1.65;;;15.40;99.90;;;14.54;100.00;97412.13;5040813;28;20132;-76
2023/07/27 01:58:45;;;;;;;4.38;1.88;;;15.40;99.90;;;14.58;100.00;97411.03;5037751;28;20588;-75
2023/07/27 02:01:12;;;;;;;4.88;1.42;;;15.40;99.90;;;14.55;100.00;97412.06;5039981;28;20048;-76
2023/07/27 02:03:41;;;;;;;3.83;1.65;;;15.40;99.90;;;14.57;100.00;97401.50;5043191;28;20077;-74
2023/07/27 02:06:08;;;;;;;6.93;1.70;;;15.40;99.90;;;14.58;100.00;97404.03;5041075;28;20053;-75
2023/07/27 02:08:35;;;;;;;6.15;1.67;;;15.40;99.90;;;14.53;100.00;97400.84;5039228;28;20106;-75
2023/07/27 02:11:04;;;;;;;2.92;1.30;;;15.40;99.90;;;14.57;100.00;97394.53;5041718;28;20099;-75
2023/07/27 02:14:01;;;;;;;4.07;1.55;;;15.40;99.90;;;14.62;100.00;97389.03;5035132;28;20137;-75
2023/07/27 02:16:48;;;;;;;6.60;1.75;;;15.40;99.90;;;14.63;100.00;97388.91;5041123;28;20535;-75
2023/07/27 02:19:21;;;;;;;2.25;1.30;;;15.50;99.90;;;14.64;100.00;97380.16;5036172;28;20416;-75
2023/07/27 02:21:49;;;;;;;4.18;1.67;;;15.40;99.90;;;14.61;100.00;97388.16;5040467;28;20057;-75
2023/07/27 02:24:17;;;;;;;3.75;1.40;;;15.40;99.90;;;14.66;100.00;97382.66;5039109;28;20049;-75
2023/07/27 02:26:44;;;;;;;3.80;1.58;;;15.40;99.90;;;14.67;100.00;97378.28;5041271;28;20135;-76
2023/07/27 02:29:11;;;;;;;2.63;1.23;;;15.40;99.90;;;14.66;100.00;97366.16;5042140;28;20478;-76
2023/07/27 02:31:38;;;;;;;3.42;1.58;;;15.50;99.90;;;14.72;100.00;97368.38;5037361;28;20379;-76
2023/07/27 02:34:06;;;;;;;2.88;1.17;;;15.40;99.90;;;14.72;100.00;97352.72;5038304;28;20091;-75
2023/07/27 02:36:33;;;;;;;3.88;1.35;;;15.50;99.90;;;14.73;100.00;97354.38;5037194;28;20050;-75
2023/07/27 02:39:01;;;;;;;4.38;1.30;;;15.50;99.90;;;14.81;100.00;97360.81;5038535;28;20696;-76
2023/07/27 02:41:28;;;;;;;6.55;1.60;;;15.50;99.90;;;14.73;100.00;97352.59;5037513;28;20049;-76
2023/07/27 02:43:55;;;;;;;3.60;1.58;;;15.50;99.90;;;14.72;100.00;97353.53;5041266;28;20172;-75
2023/07/27 02:46:22;;;;;;;3.17;1.00;;;15.50;99.90;;;14.75;100.00;97345.50;5040008;28;20050;-74
2023/07/27 02:48:49;;;;;;;7.97;2.17;;;15.50;99.90;;;14.72;100.00;97345.72;5039669;28;20049;-75
2023/07/27 02:51:16;;;;;;;4.75;1.42;;;15.60;99.90;;;14.80;100.00;97340.00;5041447;28;20053;-75
2023/07/27 02:53:43;;;;;;;7.70;1.48;;;15.60;99.90;;;14.83;100.00;97345.88;5037050;28;20045;-75
2023/07/27 02:56:10;;;;;;;4.75;1.75;;;15.60;99.90;;;14.82;100.00;97336.38;5036815;28;20172;-76
2023/07/27 02:58:37;;;;;;;4.35;1.52;;;15.60;99.90;;;14.83;100.00;97342.44;5041139;28;20527;-76
2023/07/27 03:01:04;;;;;;;3.88;1.20;;;15.60;99.90;;;14.82;100.00;97346.81;5035495;28;20130;-75
2023/07/27 03:03:32;;;;;;;2.40;1.50;;;15.60;99.90;;;14.91;100.00;97347.16;5036868;28;20053;-75
2023/07/27 03:06:03;;;;;;;3.35;1.35;;;15.60;99.90;;;14.89;100.00;97339.41;5025606;28;20080;-76
2023/07/27 03:08:31;;;;;;;4.50;1.33;;;15.70;99.90;;;14.87;100.00;97337.81;5027624;28;20136;-75
2023/07/27 03:11:06;;;;;;;5.60;1.73;;;15.70;99.90;;;14.85;100.00;97343.16;5021257;28;20061;-76
2023/07/27 03:13:33;;;;;;;3.83;1.20;;;15.70;99.90;;;14.87;100.00;97340.44;5024006;28;20881;-75
2023/07/27 03:16:04;;;;;;;5.93;1.40;;;15.70;99.90;;;14.90;100.00;97338.47;5027527;28;20045;-76
2023/07/27 03:18:31;;;;;;;3.53;1.20;;;15.70;99.90;;;14.95;100.00;97335.56;5006452;28;20543;-75
2023/07/27 03:21:05;;;;;;;3.38;1.40;;;15.70;99.90;;;14.92;100.00;97327.94;5026946;28;20088;-75
2023/07/27 03:23:33;;;;;;;9.48;1.80;;;15.70;99.90;;;14.89;100.00;97333.34;5027379;28;20046;-76
2023/07/27 03:26:00;;;;;;;4.43;1.63;;;15.70;99.90;;;14.91;100.00;97329.69;5021984;28;20061;-75
2023/07/27 03:28:28;;;;;;;4.18;1.30;;;15.80;99.90;;;14.90;100.00;97335.03;5027142;28;20053;-75
2023/07/27 03:30:55;;;;;;;7.10;2.20;;;15.80;99.90;;;14.91;100.00;97334.09;5026118;28;20045;-76
2023/07/27 03:33:22;;;;;;;3.08;1.17;;;15.70;99.90;;;14.82;100.00;97336.38;5026364;28;20457;-75
2023/07/27 03:35:49;;;;;;;5.63;1.67;;;15.70;99.90;;;14.81;100.00;97333.84;5027229;28;20057;-76
2023/07/27 03:38:16;;;;;;;3.28;1.25;;;15.70;99.90;;;14.82;100.00;97335.50;5027065;28;20126;-76
2023/07/27 03:40:46;;;;;;;4.45;1.50;;;15.70;99.90;;;14.79;100.00;97328.69;5026709;28;20045;-76
2023/07/27 03:43:13;;;;;;;3.40;1.55;;;15.70;99.90;;;14.79;100.00;97327.88;5028547;28;20049;-75
2023/07/27 03:45:40;;;;;;;3.13;1.27;;;15.60;99.90;;;14.73;100.00;97336.09;5026696;28;20562;-76
2023/07/27 03:48:07;;;;;;;3.47;1.70;;;15.60;99.90;;;14.79;100.00;97327.88;5026018;28;20306;-76
2023/07/27 03:50:34;;;;;;;4.25;1.30;;;15.60;99.90;;;14.72;100.00;97332.66;5025658;28;20037;-75
2023/07/27 03:53:01;;;;;;;4.32;1.80;;;15.60;99.90;;;14.78;100.00;97344.47;5025221;28;20199;-76
2023/07/27 03:55:29;;;;;;;6.55;1.33;;;15.60;99.90;;;14.71;100.00;97338.81;5024316;28;20041;-76
2023/07/27 03:57:56;;;;;;;3.90;1.50;;;15.60;99.90;;;14.66;100.00;97340.84;5026890;28;20052;-75
2023/07/27 04:00:23;;;;;;;5.25;1.20;;;15.60;99.90;;;14.59;100.00;97343.00;5027272;28;20092;-75
2023/07/27 04:02:50;;;;;;;4.13;1.40;;;15.50;99.90;;;14.64;100.00;97350.56;5023046;28;20392;-75
2023/07/27 04:05:17;;;;;;;3.97;1.45;;;15.50;99.90;;;14.61;100.00;97343.75;5027743;28;20136;-75
2023/07/27 04:07:44;;;;;;;4.38;1.50;;;15.50;99.90;;;14.58;100.00;97349.19;5027765;28;20110;-75
2023/07/27 04:10:14;;;;;;;3.55;1.65;;;15.50;99.90;;;14.61;100.00;97343.75;5019415;28;20136;-75
2023/07/27 04:12:41;;;;;;;3.55;1.80;;;15.40;99.90;;;14.66;100.00;97340.84;5025282;28;20405;-75
2023/07/27 04:15:09;;;;;;;3.90;1.50;;;15.40;99.90;;;14.63;100.00;97335.84;5023392;28;20504;-75
2023/07/27 04:17:36;;;;;;;2.72;1.30;;;15.40;99.90;;;14.55;100.00;97336.34;5026107;28;20274;-75
2023/07/27 04:20:04;;;;;;;6.13;1.83;;;15.40;99.90;;;14.55;100.00;97338.06;5024063;28;20046;-76
2023/07/27 04:22:31;;;;;;;4.35;1.58;;;15.40;99.90;;;14.49;100.00;97346.28;5024638;28;20459;-75
2023/07/27 04:24:58;;;;;;;3.08;1.33;;;15.40;99.90;;;14.48;100.00;97353.25;5027310;28;20042;-75
2023/07/27 04:27:25;;;;;;;6.00;1.52;;;15.30;99.90;;;14.46;100.00;97352.53;5026508;28;20280;-73
2023/07/27 04:29:52;;;;;;;4.47;1.70;;;15.30;99.90;;;14.40;100.00;97358.97;5019836;28;20088;-75
2023/07/27 04:32:19;;;;;;;6.13;1.60;;;15.20;99.90;;;14.37;100.00;97355.72;5021000;28;20049;-75
2023/07/27 04:34:46;;;;;;;4.63;1.73;;;15.20;99.90;;;14.32;100.00;97360.38;5027148;28;20476;-75
2023/07/27 04:37:13;;;;;;;5.35;1.75;;;15.20;99.90;;;14.33;100.00;97365.50;5025558;28;20065;-74
2023/07/27 04:39:40;;;;;;;3.22;1.85;;;15.20;99.90;;;14.30;100.00;97372.66;5025755;28;20133;-75
2023/07/27 04:42:07;;;;;;;3.53;1.67;;;15.10;99.90;;;14.20;100.00;97373.22;5021395;28;20076;-74
2023/07/27 04:44:34;;;;;;;4.30;1.35;;;15.10;99.90;;;14.22;100.00;97376.59;5023961;28;20046;-75
2023/07/27 04:47:02;;;;;;;8.43;1.83;;;15.00;99.90;;;14.17;100.00;97370.81;5021974;28;20115;-75
2023/07/27 04:49:31;;;;;;;5.15;1.83;;;15.10;99.90;;;14.13;100.00;97371.91;5023523;28;20049;-75
2023/07/27 04:51:58;;;;;;;5.15;2.00;;;15.00;99.90;;;14.13;100.00;97374.53;5022151;28;20095;-75
2023/07/27 04:54:26;;;;;;;7.25;1.88;;;15.00;99.90;;;14.15;100.00;97377.91;5025637;28;20049;-75
2023/07/27 04:56:53;;;;;;;4.65;2.40;;;15.00;99.90;;;14.22;100.00;97376.59;5024715;28;20053;-75
2023/07/27 04:59:28;;;;;;;5.80;2.10;;;15.00;99.90;;;14.25;100.00;97375.56;5023213;28;20053;-75
2023/07/27 05:01:55;;;;;;;5.03;1.85;;;15.00;99.90;;;14.24;100.00;97368.69;5025115;28;20045;-75
2023/07/27 05:04:22;;;;;;;5.60;1.50;;;15.00;99.90;;;14.22;100.00;97366.16;5018904;28;20049;-75
2023/07/27 05:06:49;;;;;;;6.10;2.08;;;15.00;99.90;;;14.28;100.00;97356.25;5023887;28;20057;-75
2023/07/27 05:09:17;;;;;;;5.43;1.65;;;15.00;99.90;;;14.32;100.00;97353.41;5024546;28;20132;-75
2023/07/27 05:11:44;;;;;;;3.70;1.60;;;15.00;99.90;;;14.40;100.00;97358.13;5022978;28;20053;-74
2023/07/27 05:14:11;;;;;;;6.30;1.80;;;15.00;99.90;;;14.43;100.00;97355.31;5018334;28;20052;-75
2023/07/27 05:16:38;;;;;;;3.47;1.50;;;15.00;99.90;;;14.39;100.00;97359.91;5023915;28;20053;-75
2023/07/27 05:19:05;;;;;;;5.15;1.77;;;15.00;99.90;;;14.35;100.00;97347.97;5025585;28;20045;-74
2023/07/27 05:21:32;;;;;;;5.05;2.13;;;15.00;99.90;;;14.34;100.00;97351.50;5024912;28;20095;-75
2023/07/27 05:23:59;;;;;;;4.65;1.70;;;15.10;99.90;;;14.34;100.00;97342.84;5023888;28;20049;-74
2023/07/27 05:26:26;;;;;;;5.95;1.73;;;15.00;99.90;;;14.33;100.00;97344.63;5023794;28;20514;-75
2023/07/27 05:28:53;;;;;;;6.00;1.95;;;15.10;99.90;;;14.40;100.00;97345.91;5023165;28;20107;-75
2023/07/27 05:31:20;;;;;;;3.95;1.60;;;15.10;99.90;;;14.32;100.00;97347.31;5021394;28;20500;-74
2023/07/27 05:33:47;;;;;;;3.78;1.60;;;15.10;99.90;;;14.30;100.00;97349.16;5022900;28;20050;-74
2023/07/27 05:36:15;;;;;;;7.93;2.38;;;15.10;99.90;;;14.34;100.00;97342.84;5025318;28;20570;-73
2023/07/27 05:38:42;;;;;;;7.55;2.15;;;15.10;99.90;;;14.31;100.00;97348.25;5020871;28;20131;-74
2023/07/27 05:41:09;;;;;;;5.32;1.90;;;15.10;99.90;;;14.32;100.00;97336.88;5022591;28;20049;-74
2023/07/27 05:43:37;;;;;;;6.03;2.45;;;15.10;99.90;;;14.33;100.00;97339.38;5023056;28;20053;-75
2023/07/27 05:46:04;;;;;;;7.57;1.92;;;15.10;99.90;;;14.29;100.00;97344.91;5025142;28;20590;-74
2023/07/27 05:48:33;;;;;;;4.60;2.15;;;15.00;99.90;;;14.29;100.00;97343.13;5023624;28;20396;-74
2023/07/27 05:51:00;;;;;;;3.70;1.70;;;15.00;99.90;;;14.26;100.00;97337.25;5023625;28;20131;-75
2023/07/27 05:53:27;;;;;;;5.78;2.03;;;15.00;99.90;;;14.21;100.00;97354.03;5025591;28;20045;-74
2023/07/27 05:55:55;;;;;;;11.07;2.17;;;15.00;99.90;;;14.31;100.00;97349.09;5019722;28;20467;-75
2023/07/27 05:58:22;;;;;;;7.47;1.85;;;15.00;99.90;;;14.28;100.00;97348.41;5024221;28;20139;-75
2023/07/27 06:01:00;;;;;;;5.40;2.03;;;15.00;99.90;;;14.21;100.00;97350.59;5023537;28;20493;-75
2023/07/27 06:03:30;;;;;;;8.63;2.28;;;15.00;99.90;;;14.20;100.00;97365.41;5024014;28;20488;-74
2023/07/27 06:05:57;;;;;;;6.25;2.25;;;14.90;99.90;;;14.13;100.00;97361.47;5018955;28;20050;-74
2023/07/27 06:08:25;;;;;;;6.47;2.35;;;14.90;99.90;;;14.10;100.00;97361.69;5025350;28;20049;-74
2023/07/27 06:11:01;;;;;;;10.25;2.25;;;15.00;99.90;;;14.10;100.00;97369.50;5025449;28;20057;-77
2023/07/27 06:13:29;;;;;;;7.03;2.35;;;14.90;99.90;;;14.04;100.00;97382.09;5023346;28;20073;-77
2023/07/27 06:15:57;;;;;;;8.10;1.80;;;14.90;99.90;;;14.16;100.00;97363.94;5027779;28;20496;-76
2023/07/27 06:18:25;;;;;;;7.15;2.15;;;14.90;99.90;;;14.18;100.00;97356.81;5026127;28;20056;-76
2023/07/27 06:20:52;;;;;;;4.07;1.73;;;14.90;99.90;;;14.26;100.00;97356.38;5025560;28;20037;-76
2023/07/27 06:23:19;;;;;;;7.95;2.13;;;14.90;99.90;;;14.19;100.00;97363.72;5021537;28;20481;-73
2023/07/27 06:25:47;;;;;;;5.32;2.15;;;14.90;99.90;;;14.21;100.00;97355.81;5023245;28;20325;-75
2023/07/27 06:28:14;;;;;;;8.30;1.73;;;14.90;99.90;;;14.16;100.00;97355.22;5019813;28;20049;-76
2023/07/27 06:30:41;;;;;;;3.30;1.45;;;14.90;99.90;;;14.18;100.00;97363.81;5025841;28;20115;-75
2023/07/27 06:33:08;;;;;;;4.38;2.10;;;14.90;99.90;;;14.18;100.00;97358.59;5017903;28;20053;-76
2023/07/27 06:35:36;;;;;;;3.95;1.75;;;14.90;99.90;;;14.14;100.00;97368.41;5027109;28;20056;-76
2023/07/27 06:38:03;;;;;;;5.63;2.00;;;14.90;99.90;;;14.12;100.00;97356.38;5023251;28;20455;-75
2023/07/27 06:40:30;;;;;;;2.97;1.65;;;14.90;99.90;;;14.12;100.00;97361.59;5028160;28;20116;-76
2023/07/27 06:42:57;;;;;;;5.38;1.50;;;14.80;99.90;;;14.18;100.00;97366.44;5024185;28;20057;-76
2023/07/27 06:45:24;;;;;;;3.55;1.55;;;14.80;99.90;;;14.12;100.00;97372.03;5027853;28;20401;-75
2023/07/27 06:47:53;;;;;;;8.30;1.88;;;14.80;99.90;;;14.23;100.00;97366.97;5026592;28;20072;-75
2023/07/27 06:50:21;;;;;;;6.80;1.60;;;14.90;99.90;;;14.40;100.00;97358.97;5027741;28;20045;-74
2023/07/27 06:52:48;;;;;;;5.90;1.98;;;15.00;99.90;;;14.22;100.00;97334.81;5023530;28;20080;-76
2023/07/27 06:55:16;;;;;;;7.63;2.03;;;15.00;99.90;;;14.37;100.00;97359.16;5026322;28;20088;-75
2023/07/27 06:57:43;;;;;;;10.52;1.80;;;15.10;99.90;;;14.21;100.00;97351.44;5025158;28;20133;-74
2023/07/27 07:00:11;;;;;;;4.85;1.85;;;14.90;99.90;;;14.23;100.00;97351.31;5022056;28;20148;-75
2023/07/27 07:02:38;;;;;;;4.90;2.03;;;14.90;99.90;;;14.10;100.00;97351.25;5024568;28;20091;-74
2023/07/27 07:05:06;;;;;;;7.15;1.98;;;14.80;99.90;;;14.20;100.00;97360.19;5022240;28;20132;-73
2023/07/27 07:07:33;;;;;;;3.88;1.88;;;14.90;99.90;;;14.24;100.00;97342.56;5023864;28;20544;-75
2023/07/27 07:10:00;;;;;;;7.43;2.08;;;14.90;99.90;;;14.14;100.00;97334.47;5028223;28;20061;-74
2023/07/27 07:12:27;;;;;;;4.10;2.08;;;14.90;99.90;;;14.05;100.00;97329.81;5026382;28;20489;-73
2023/07/27 07:14:54;;;;;;;4.43;1.92;;;14.90;99.90;;;14.00;100.00;97347.50;5020142;28;20072;-73
2023/07/27 07:17:24;;;;;;;5.20;2.17;;;14.70;99.90;;;13.93;100.00;97327.91;5029333;28;20049;-74
2023/07/27 07:19:51;;;;;;;4.97;2.20;;;14.70;99.90;;;13.81;100.00;97332.09;5023866;28;20053;-73
2023/07/27 07:22:21;;;;;;;5.00;2.60;;;14.60;99.90;;;13.90;100.00;97346.38;5029057;28;20049;-74
2023/07/27 07:24:48;;;;;;;7.28;2.80;;;14.60;99.90;;;13.72;100.00;97350.91;5028150;28;20049;-74
2023/07/27 07:27:15;;;;;;;4.85;2.30;;;14.50;99.90;;;13.82;100.00;97357.25;5028671;28;20375;-76
2023/07/27 07:29:42;;;;;;;5.05;2.83;;;14.40;99.90;;;13.77;100.00;97347.09;5022655;28;20500;-75
2023/07/27 07:32:09;;;;;;;4.15;2.75;;;14.40;99.90;;;13.67;100.00;97369.44;5027584;28;20556;-74
2023/07/27 07:34:36;;;;;;;6.75;2.60;;;14.30;99.90;;;13.67;100.00;97361.63;5024774;28;20449;-74
2023/07/27 07:37:04;;;;;;;6.70;2.80;;;14.30;99.90;;;13.60;100.00;97368.13;5028073;28;20065;-75
2023/07/27 07:39:31;;;;;;;7.70;2.88;;;14.20;99.90;;;13.52;100.00;97367.72;5028137;28;20402;-74
2023/07/27 07:42:00;;;;;;;6.30;2.75;;;14.20;99.90;;;13.51;100.00;97374.69;5026695;28;20049;-74
2023/07/27 07:44:27;;;;;;;5.97;3.03;;;14.20;99.90;;;13.59;100.00;97382.94;5027646;28;20053;-75
2023/07/27 07:46:54;;;;;;;7.53;3.10;;;14.20;99.90;;;13.51;100.00;97389.53;5028472;28;20472;-74
2023/07/27 07:49:26;;;;;;;6.45;3.45;;;14.20;99.90;;;13.49;100.00;97384.38;5029177;28;20049;-75
2023/07/27 07:51:53;;;;;;;5.55;2.40;;;14.10;99.90;;;13.53;100.00;97392.88;5027149;28;20135;-72
2023/07/27 07:54:20;;;;;;;6.35;2.92;;;14.20;99.90;;;13.50;100.00;97399.13;5026636;28;20076;-73
2023/07/27 07:56:47;;;;;;;6.88;2.80;;;14.10;99.90;;;13.52;100.00;97385.97;5029219;28;20644;-74
2023/07/27 07:59:15;;;;;;;6.60;2.92;;;14.10;99.90;;;13.50;100.00;97401.72;5028000;28;20045;-74
2023/07/27 08:01:42;;;;;;;7.97;2.90;;;14.10;99.90;;;13.46;100.00;97397.59;5028240;28;20489;-72
2023/07/27 08:04:12;;;;;;;6.93;3.35;;;14.10;99.90;;;13.45;100.00;97390.69;5027784;28;20138;-76
2023/07/27 08:06:39;;;;;;;10.20;3.42;;;14.10;99.90;;;13.48;100.00;97389.66;5028419;28;20125;-76
2023/07/27 08:09:06;;;;;;;7.75;3.42;;;14.10;99.90;;;13.56;100.00;97375.28;5027446;28;20056;-74
2023/07/27 08:11:33;;;;;;;10.85;3.42;;;14.20;99.90;;;13.66;100.00;97370.38;5028491;28;20468;-75
2023/07/27 08:14:02;;;;;;;8.07;3.38;;;14.20;99.90;;;13.76;100.00;97368.91;5026535;28;20510;-75
2023/07/27 08:16:30;;;;;;;7.10;3.08;;;14.30;99.90;;;13.95;100.00;97366.03;5029503;28;20057;-75
2023/07/27 08:18:57;;;;;;;8.68;3.45;;;14.40;99.90;;;14.01;100.00;97367.44;5028535;28;20482;-74
2023/07/27 08:21:25;;;;;;;8.20;2.90;;;14.50;99.90;;;14.19;100.00;97357.69;5028898;28;20123;-75
2023/07/27 08:23:52;;;;;;;5.85;3.30;;;14.60;99.90;;;14.41;100.00;97370.25;5019831;28;20107;-75
2023/07/27 08:26:20;;;;;;;10.07;3.25;;;14.80;99.90;;;14.38;100.00;97363.44;5023190;28;20131;-75
2023/07/27 08:28:51;;;;;;;8.88;3.35;;;14.90;99.90;;;14.47;100.00;97361.22;5018069;28;20069;-74
2023/07/27 08:31:18;;;;;;;7.03;2.45;;;;;;;14.32;100.00;97361.22;5015574;28;20146;-75
2023/07/27 08:33:45;;;;;;;6.28;3.15;;;15.00;99.90;;;14.46;100.00;97347.31;5023435;28;20063;-75
2023/07/27 08:36:13;;;;;;;6.80;3.42;;;15.00;99.90;;;14.38;100.00;97342.56;5021484;28;20117;-75
2023/07/27 08:38:40;;;;;;;6.28;2.92;;;15.00;99.90;;;14.56;100.00;97338.00;5023639;28;20501;-74
2023/07/27 08:41:07;;;;;;;6.85;2.80;;;15.00;99.90;;;14.77;100.00;97327.97;5022459;28;20049;-75
2023/07/27 08:43:35;;;;;;;6.30;3.25;;;15.20;99.90;;;14.87;100.00;97336.06;5022703;28;20049;-75
2023/07/27 08:46:03;;;;;;;5.25;2.90;;;15.30;99.90;;;15.18;100.00;97331.47;5021315;28;20061;-75
2023/07/27 08:48:31;;;;;;;7.60;3.20;;;15.50;99.90;;;15.22;100.00;97327.72;5023625;28;20045;-75
2023/07/27 08:50:59;;;;;;;4.50;2.50;;;15.50;99.90;;;15.22;100.00;97320.72;5019088;28;20421;-75
2023/07/27 08:53:26;;;;;;;5.50;2.88;;;15.60;99.90;;;15.19;100.00;97297.41;5024908;28;20057;-75
2023/07/27 08:55:53;;;;;;;5.38;2.97;;;15.60;99.90;;;15.21;100.00;97295.53;5025656;28;20077;-75
2023/07/27 08:58:21;;;;;;;7.47;2.80;;;15.70;99.90;;;15.06;100.00;97291.28;5023958;28;20073;-74
2023/07/27 09:00:48;;;;;;;9.27;2.95;;;15.70;99.90;;;15.31;100.00;97292.28;5022691;28;20045;-75
2023/07/27 09:03:16;;;;;;;7.85;3.15;;;15.70;99.90;;;15.17;100.00;97275.75;5026131;28;20049;-75
2023/07/27 09:05:55;;;;;;;4.65;2.67;;;15.80;99.90;;;15.34;100.00;97286.84;5020475;28;20070;-74
2023/07/27 09:08:22;;;;;;;5.10;2.72;;;15.90;99.90;;;15.63;100.00;97283.13;5024306;28;20049;-75
2023/07/27 09:10:49;;;;;;;7.88;2.78;;;16.00;99.90;;;15.66;100.00;97280.28;5018540;28;20460;-75
2023/07/27 09:13:16;;;;;;;4.32;2.38;;;16.10;99.90;;;15.82;100.00;97267.03;5020775;28;20041;-75
2023/07/27 09:15:45;;;;;;;4.82;2.67;;;16.20;99.90;;;15.74;100.00;97271.97;5020274;28;20127;-74
2023/07/27 09:18:14;;;;;;;8.68;3.15;;;16.20;99.90;;;15.76;100.00;97254.38;5024773;28;20052;-75
2023/07/27 09:20:42;;;;;;;8.30;2.20;;;16.20;99.90;;;15.68;100.00;97257.47;5025572;28;20076;-75
2023/07/27 09:23:19;;;;;;;7.53;2.88;;;16.10;99.90;;;15.61;100.00;97251.00;5016262;28;20049;-74
2023/07/27 09:25:54;;;;;;;5.68;2.88;;;16.00;99.90;;;15.50;100.00;97252.66;5022246;28;20144;-75
2023/07/27 09:28:26;;;;;;;7.85;2.83;;;15.90;99.90;;;15.31;100.00;97263.53;5020310;28;20050;-75
2023/07/27 09:31:03;;;;;;;8.15;2.83;;;15.90;99.90;;;15.38;100.00;97256.94;5022836;28;20085;-75
2023/07/27 09:33:31;;;;;;;7.10;2.75;;;16.00;99.90;;;15.32;100.00;97257.34;5018526;28;20057;-75
2023/07/27 09:35:58;;;;;;;7.05;3.28;;;15.90;99.90;;;15.30;100.00;97259.22;5022618;28;20132;-75
2023/07/27 09:38:28;;;;;;;3.60;2.50;;;15.90;99.90;;;15.33;100.00;97272.13;5024569;28;20594;-75
2023/07/27 09:40:55;;;;;;;4.53;2.50;;;15.70;99.90;;;15.37;100.00;97260.47;5022508;28;20107;-74
2023/07/27 09:43:24;;;;;;;8.15;3.47;;;15.80;99.90;;;15.35;100.00;97263.22;5024863;28;20107;-75
2023/07/27 09:45:58;;;;;;;9.38;3.00;;;15.80;99.90;;;15.38;100.00;97262.19;5021452;28;20060;-75
2023/07/27 09:48:28;;;;;;;7.15;3.10;;;15.90;99.90;;;15.63;100.00;97258.75;5023282;28;20050;-75
2023/07/27 09:51:02;;;;;;;5.78;3.03;;;16.00;99.90;;;15.82;100.00;97247.88;5026171;28;20488;-74
2023/07/27 09:53:30;;;;;;;7.18;2.85;;;16.10;99.90;;;15.84;100.00;97252.06;5023808;28;20045;-74
2023/07/27 09:55:59;;;;;;;6.30;3.40;;;16.20;99.90;;;15.94;100.00;97241.78;5023993;28;20069;-76
2023/07/27 09:58:29;;;;;;;7.80;4.20;;;16.30;99.90;;;15.86;100.00;97247.56;5021382;28;20512;-75
2023/07/27 10:00:56;;;;;;;8.73;3.03;;;16.40;99.90;;;15.92;100.00;97248.06;5023986;28;20069;-75
2023/07/27 10:03:23;;;;;;;5.40;3.35;;;16.40;99.90;;;15.96;100.00;97242.50;5025230;28;20132;-75
2023/07/27 10:05:51;;;;;;;4.88;3.17;;;16.40;99.90;;;16.00;100.00;97237.91;5006778;28;20061;-75
2023/07/27 10:08:18;;;;;;;6.32;2.90;;;16.40;99.90;;;15.93;100.00;97247.97;5019851;28;20063;-75
2023/07/27 10:10:52;;;;;;;4.95;2.90;;;16.50;99.90;;;15.98;100.00;97258.13;5024970;28;20088;-74
2023/07/27 10:13:22;;;;;;;5.75;2.45;;;16.40;99.90;;;16.02;100.00;97255.19;5019859;28;20147;-74
2023/07/27 10:15:52;;;;;;;4.95;2.90;;;16.40;99.90;;;15.95;100.00;97253.09;5026867;28;20448;-75
2023/07/27 10:18:29;;;;;;;7.80;3.17;;;16.30;99.90;;;16.04;100.00;97244.59;5021014;28;20637;-75
2023/07/27 10:21:25;;;;;;;6.22;3.05;;;16.40;99.90;;;15.92;100.00;97246.31;5026001;28;20045;-74
2023/07/27 10:23:59;;;;;;;6.30;2.67;;;16.40;99.90;;;15.95;100.00;97250.50;5040209;28;20049;-74